sensor_id;sensor_type;location;lat;lon;timestamp;P1;durP1;ratioP1;P2;durP2;ratioP2
59571;SDS011;70118;45.638;11.714;2023-11-21T00:01:41;11.95;;;5.82;;
59571;SDS011;70118;45.638;11.714;2023-11-21T00:04:08;8.52;;;5.55;;
59571;SDS011;70118;45.638;11.714;2023-11-21T00:06:34;9.53;;;5.70;;
59571;SDS011;70118;45.638;11.714;2023-11-21T00:09:00;9.50;;;5.45;;
59571;SDS011;70118;45.638;11.714;2023-11-21T00:11:26;10.85;;;5.85;;
59571;SDS011;70118;45.638;11.714;2023-11-21T00:13:52;9.03;;;5.40;;
59571;SDS011;70118;45.638;11.714;2023-11-21T00:16:18;9.48;;;5.60;;
59571;SDS011;70118;45.638;11.714;2023-11-21T00:18:44;9.73;;;5.95;;
59571;SDS011;70118;45.638;11.714;2023-11-21T00:21:11;9.83;;;5.67;;
59571;SDS011;70118;45.638;11.714;2023-11-21T00:23:37;8.65;;;5.70;;
59571;SDS011;70118;45.638;11.714;2023-11-21T00:26:03;8.48;;;5.68;;
59571;SDS011;70118;45.638;11.714;2023-11-21T00:28:30;9.88;;;6.00;;
59571;SDS011;70118;45.638;11.714;2023-11-21T00:30:55;12.07;;;6.57;;
59571;SDS011;70118;45.638;11.714;2023-11-21T00:33:21;9.43;;;5.60;;
59571;SDS011;70118;45.638;11.714;2023-11-21T00:35:47;9.38;;;5.88;;
59571;SDS011;70118;45.638;11.714;2023-11-21T00:38:13;9.63;;;5.93;;
59571;SDS011;70118;45.638;11.714;2023-11-21T00:40:39;9.57;;;6.07;;
59571;SDS011;70118;45.638;11.714;2023-11-21T00:43:05;9.60;;;6.57;;
59571;SDS011;70118;45.638;11.714;2023-11-21T00:45:30;9.18;;;5.90;;
59571;SDS011;70118;45.638;11.714;2023-11-21T00:47:56;9.55;;;5.55;;
59571;SDS011;70118;45.638;11.714;2023-11-21T00:50:23;9.90;;;5.70;;
59571;SDS011;70118;45.638;11.714;2023-11-21T00:52:49;10.68;;;5.90;;
59571;SDS011;70118;45.638;11.714;2023-11-21T00:55:16;8.98;;;5.82;;
59571;SDS011;70118;45.638;11.714;2023-11-21T00:57:43;9.20;;;5.57;;
59571;SDS011;70118;45.638;11.714;2023-11-21T01:00:09;9.48;;;5.70;;
59571;SDS011;70118;45.638;11.714;2023-11-21T01:02:44;10.40;;;5.73;;
59571;SDS011;70118;45.638;11.714;2023-11-21T01:05:10;7.40;;;5.30;;
59571;SDS011;70118;45.638;11.714;2023-11-21T01:07:36;8.88;;;5.43;;
59571;SDS011;70118;45.638;11.714;2023-11-21T01:10:02;11.10;;;5.82;;
59571;SDS011;70118;45.638;11.714;2023-11-21T01:12:32;9.90;;;5.97;;
59571;SDS011;70118;45.638;11.714;2023-11-21T01:15:03;8.98;;;5.15;;
59571;SDS011;70118;45.638;11.714;2023-11-21T01:17:37;8.30;;;5.13;;
59571;SDS011;70118;45.638;11.714;2023-11-21T01:20:03;9.13;;;5.25;;
59571;SDS011;70118;45.638;11.714;2023-11-21T01:22:38;10.60;;;5.90;;
59571;SDS011;70118;45.638;11.714;2023-11-21T01:25:04;9.27;;;5.60;;
59571;SDS011;70118;45.638;11.714;2023-11-21T01:27:32;9.27;;;5.43;;
59571;SDS011;70118;45.638;11.714;2023-11-21T01:29:59;9.07;;;5.55;;
59571;SDS011;70118;45.638;11.714;2023-11-21T01:32:25;8.55;;;5.35;;
59571;SDS011;70118;45.638;11.714;2023-11-21T01:34:51;9.27;;;5.60;;
59571;SDS011;70118;45.638;11.714;2023-11-21T01:37:17;8.48;;;5.20;;
59571;SDS011;70118;45.638;11.714;2023-11-21T01:39:43;9.55;;;5.82;;
59571;SDS011;70118;45.638;11.714;2023-11-21T01:42:09;9.27;;;5.53;;
59571;SDS011;70118;45.638;11.714;2023-11-21T01:44:36;10.27;;;5.67;;
59571;SDS011;70118;45.638;11.714;2023-11-21T01:47:02;9.15;;;5.55;;
59571;SDS011;70118;45.638;11.714;2023-11-21T01:49:30;10.48;;;6.15;;
59571;SDS011;70118;45.638;11.714;2023-11-21T01:51:59;9.55;;;5.90;;
59571;SDS011;70118;45.638;11.714;2023-11-21T01:54:25;9.93;;;5.60;;
59571;SDS011;70118;45.638;11.714;2023-11-21T01:56:52;10.32;;;5.80;;
59571;SDS011;70118;45.638;11.714;2023-11-21T01:59:18;9.02;;;5.22;;
59571;SDS011;70118;45.638;11.714;2023-11-21T02:01:49;8.95;;;5.30;;
59571;SDS011;70118;45.638;11.714;2023-11-21T02:04:17;9.10;;;5.82;;
59571;SDS011;70118;45.638;11.714;2023-11-21T02:06:44;8.83;;;5.10;;
59571;SDS011;70118;45.638;11.714;2023-11-21T02:09:10;8.48;;;5.35;;
59571;SDS011;70118;45.638;11.714;2023-11-21T02:11:40;8.88;;;5.25;;
59571;SDS011;70118;45.638;11.714;2023-11-21T02:14:06;9.82;;;5.72;;
59571;SDS011;70118;45.638;11.714;2023-11-21T02:16:34;8.90;;;5.57;;
59571;SDS011;70118;45.638;11.714;2023-11-21T02:19:01;9.23;;;5.93;;
59571;SDS011;70118;45.638;11.714;2023-11-21T02:21:29;10.73;;;6.25;;
59571;SDS011;70118;45.638;11.714;2023-11-21T02:23:56;10.77;;;6.03;;
59571;SDS011;70118;45.638;11.714;2023-11-21T02:26:22;8.67;;;5.63;;
59571;SDS011;70118;45.638;11.714;2023-11-21T02:28:47;8.80;;;5.32;;
59571;SDS011;70118;45.638;11.714;2023-11-21T02:31:13;10.07;;;6.10;;
59571;SDS011;70118;45.638;11.714;2023-11-21T02:33:39;8.53;;;5.07;;
59571;SDS011;70118;45.638;11.714;2023-11-21T02:36:05;9.60;;;5.80;;
59571;SDS011;70118;45.638;11.714;2023-11-21T02:38:31;8.80;;;5.13;;
59571;SDS011;70118;45.638;11.714;2023-11-21T02:40:57;8.02;;;4.93;;
59571;SDS011;70118;45.638;11.714;2023-11-21T02:43:26;8.67;;;5.57;;
59571;SDS011;70118;45.638;11.714;2023-11-21T02:45:51;10.15;;;5.13;;
59571;SDS011;70118;45.638;11.714;2023-11-21T02:48:17;8.60;;;5.47;;
59571;SDS011;70118;45.638;11.714;2023-11-21T02:50:43;8.77;;;4.93;;
59571;SDS011;70118;45.638;11.714;2023-11-21T02:53:09;8.75;;;5.32;;
59571;SDS011;70118;45.638;11.714;2023-11-21T02:55:36;8.00;;;5.00;;
59571;SDS011;70118;45.638;11.714;2023-11-21T02:58:02;9.60;;;4.97;;
59571;SDS011;70118;45.638;11.714;2023-11-21T03:00:31;7.05;;;4.85;;
59571;SDS011;70118;45.638;11.714;2023-11-21T03:02:57;10.80;;;4.85;;
59571;SDS011;70118;45.638;11.714;2023-11-21T03:05:23;7.78;;;4.80;;
59571;SDS011;70118;45.638;11.714;2023-11-21T03:07:49;8.23;;;5.37;;
59571;SDS011;70118;45.638;11.714;2023-11-21T03:10:14;8.55;;;4.60;;
59571;SDS011;70118;45.638;11.714;2023-11-21T03:12:41;6.65;;;4.13;;
59571;SDS011;70118;45.638;11.714;2023-11-21T03:15:07;8.93;;;5.28;;
59571;SDS011;70118;45.638;11.714;2023-11-21T03:17:36;7.70;;;4.83;;
59571;SDS011;70118;45.638;11.714;2023-11-21T03:20:02;8.85;;;4.93;;
59571;SDS011;70118;45.638;11.714;2023-11-21T03:22:29;8.38;;;5.00;;
59571;SDS011;70118;45.638;11.714;2023-11-21T03:24:55;8.10;;;5.10;;
59571;SDS011;70118;45.638;11.714;2023-11-21T03:27:21;8.97;;;4.70;;
59571;SDS011;70118;45.638;11.714;2023-11-21T03:29:47;8.10;;;4.65;;
59571;SDS011;70118;45.638;11.714;2023-11-21T03:32:13;8.30;;;5.10;;
59571;SDS011;70118;45.638;11.714;2023-11-21T03:34:57;9.07;;;5.67;;
59571;SDS011;70118;45.638;11.714;2023-11-21T03:37:24;8.82;;;5.45;;
59571;SDS011;70118;45.638;11.714;2023-11-21T03:39:50;8.07;;;4.88;;
59571;SDS011;70118;45.638;11.714;2023-11-21T03:42:16;8.40;;;4.72;;
59571;SDS011;70118;45.638;11.714;2023-11-21T03:44:42;8.67;;;5.10;;
59571;SDS011;70118;45.638;11.714;2023-11-21T03:47:08;8.00;;;4.85;;
59571;SDS011;70118;45.638;11.714;2023-11-21T03:49:34;8.02;;;4.57;;
59571;SDS011;70118;45.638;11.714;2023-11-21T03:52:00;7.40;;;4.77;;
59571;SDS011;70118;45.638;11.714;2023-11-21T03:54:26;7.68;;;4.53;;
59571;SDS011;70118;45.638;11.714;2023-11-21T03:56:51;7.90;;;4.40;;
59571;SDS011;70118;45.638;11.714;2023-11-21T03:59:17;7.07;;;4.40;;
59571;SDS011;70118;45.638;11.714;2023-11-21T04:01:43;7.85;;;4.80;;
59571;SDS011;70118;45.638;11.714;2023-11-21T04:04:09;7.63;;;4.67;;
59571;SDS011;70118;45.638;11.714;2023-11-21T04:06:37;8.95;;;4.80;;
59571;SDS011;70118;45.638;11.714;2023-11-21T04:09:03;6.90;;;3.70;;
59571;SDS011;70118;45.638;11.714;2023-11-21T04:11:29;8.30;;;4.60;;
59571;SDS011;70118;45.638;11.714;2023-11-21T04:13:55;7.90;;;4.90;;
59571;SDS011;70118;45.638;11.714;2023-11-21T04:16:21;9.00;;;5.07;;
59571;SDS011;70118;45.638;11.714;2023-11-21T04:18:47;8.25;;;4.55;;
59571;SDS011;70118;45.638;11.714;2023-11-21T04:21:13;7.87;;;4.43;;
59571;SDS011;70118;45.638;11.714;2023-11-21T04:23:39;7.88;;;4.53;;
59571;SDS011;70118;45.638;11.714;2023-11-21T04:26:05;7.25;;;4.43;;
59571;SDS011;70118;45.638;11.714;2023-11-21T04:28:31;7.35;;;4.30;;
59571;SDS011;70118;45.638;11.714;2023-11-21T04:30:58;8.03;;;4.47;;
59571;SDS011;70118;45.638;11.714;2023-11-21T04:33:30;7.57;;;5.07;;
59571;SDS011;70118;45.638;11.714;2023-11-21T04:35:59;8.05;;;4.95;;
59571;SDS011;70118;45.638;11.714;2023-11-21T04:38:26;7.20;;;4.47;;
59571;SDS011;70118;45.638;11.714;2023-11-21T04:41:01;8.15;;;4.78;;
59571;SDS011;70118;45.638;11.714;2023-11-21T04:43:34;8.10;;;4.50;;
59571;SDS011;70118;45.638;11.714;2023-11-21T04:46:01;7.25;;;4.32;;
59571;SDS011;70118;45.638;11.714;2023-11-21T04:48:28;7.93;;;4.65;;
59571;SDS011;70118;45.638;11.714;2023-11-21T04:50:54;8.57;;;4.60;;
59571;SDS011;70118;45.638;11.714;2023-11-21T04:53:23;7.35;;;3.85;;
59571;SDS011;70118;45.638;11.714;2023-11-21T04:55:55;6.70;;;3.70;;
59571;SDS011;70118;45.638;11.714;2023-11-21T04:58:23;7.20;;;4.07;;
59571;SDS011;70118;45.638;11.714;2023-11-21T05:00:50;6.85;;;4.50;;
59571;SDS011;70118;45.638;11.714;2023-11-21T05:03:17;7.78;;;4.40;;
59571;SDS011;70118;45.638;11.714;2023-11-21T05:05:42;7.33;;;4.77;;
59571;SDS011;70118;45.638;11.714;2023-11-21T05:08:08;7.95;;;4.50;;
59571;SDS011;70118;45.638;11.714;2023-11-21T05:10:34;7.70;;;4.43;;
59571;SDS011;70118;45.638;11.714;2023-11-21T05:13:03;7.23;;;4.73;;
59571;SDS011;70118;45.638;11.714;2023-11-21T05:15:29;7.53;;;4.38;;
59571;SDS011;70118;45.638;11.714;2023-11-21T05:17:55;7.93;;;4.90;;
59571;SDS011;70118;45.638;11.714;2023-11-21T05:20:25;7.90;;;4.30;;
59571;SDS011;70118;45.638;11.714;2023-11-21T05:22:51;7.30;;;4.50;;
59571;SDS011;70118;45.638;11.714;2023-11-21T05:25:17;7.03;;;4.03;;
59571;SDS011;70118;45.638;11.714;2023-11-21T05:27:46;7.00;;;3.97;;
59571;SDS011;70118;45.638;11.714;2023-11-21T05:30:13;7.20;;;4.20;;
59571;SDS011;70118;45.638;11.714;2023-11-21T05:32:39;6.60;;;3.72;;
59571;SDS011;70118;45.638;11.714;2023-11-21T05:35:08;8.03;;;4.57;;
59571;SDS011;70118;45.638;11.714;2023-11-21T05:37:40;7.82;;;4.40;;
59571;SDS011;70118;45.638;11.714;2023-11-21T05:40:10;7.68;;;4.40;;
59571;SDS011;70118;45.638;11.714;2023-11-21T05:42:38;7.60;;;3.90;;
59571;SDS011;70118;45.638;11.714;2023-11-21T05:45:05;7.15;;;4.00;;
59571;SDS011;70118;45.638;11.714;2023-11-21T05:47:39;7.17;;;4.07;;
59571;SDS011;70118;45.638;11.714;2023-11-21T05:50:06;6.55;;;3.90;;
59571;SDS011;70118;45.638;11.714;2023-11-21T05:52:37;7.80;;;3.97;;
59571;SDS011;70118;45.638;11.714;2023-11-21T05:55:07;7.32;;;4.00;;
59571;SDS011;70118;45.638;11.714;2023-11-21T05:57:37;6.60;;;3.90;;
59571;SDS011;70118;45.638;11.714;2023-11-21T06:00:08;8.30;;;4.20;;
59571;SDS011;70118;45.638;11.714;2023-11-21T06:02:43;8.07;;;4.55;;
59571;SDS011;70118;45.638;11.714;2023-11-21T06:05:10;8.82;;;4.57;;
59571;SDS011;70118;45.638;11.714;2023-11-21T06:07:36;6.65;;;3.83;;
59571;SDS011;70118;45.638;11.714;2023-11-21T06:10:04;7.75;;;4.10;;
59571;SDS011;70118;45.638;11.714;2023-11-21T06:12:34;6.83;;;4.07;;
59571;SDS011;70118;45.638;11.714;2023-11-21T06:15:03;6.80;;;4.00;;
59571;SDS011;70118;45.638;11.714;2023-11-21T06:17:33;6.95;;;4.00;;
59571;SDS011;70118;45.638;11.714;2023-11-21T06:20:04;6.50;;;3.95;;
59571;SDS011;70118;45.638;11.714;2023-11-21T06:22:48;7.53;;;4.18;;
59571;SDS011;70118;45.638;11.714;2023-11-21T06:25:15;6.63;;;3.63;;
59571;SDS011;70118;45.638;11.714;2023-11-21T06:27:43;6.32;;;4.00;;
59571;SDS011;70118;45.638;11.714;2023-11-21T06:30:10;6.55;;;3.90;;
59571;SDS011;70118;45.638;11.714;2023-11-21T06:32:38;6.80;;;3.78;;
59571;SDS011;70118;45.638;11.714;2023-11-21T06:35:05;6.53;;;3.63;;
59571;SDS011;70118;45.638;11.714;2023-11-21T06:37:32;8.13;;;4.37;;
59571;SDS011;70118;45.638;11.714;2023-11-21T06:39:59;7.38;;;3.72;;
59571;SDS011;70118;45.638;11.714;2023-11-21T06:42:25;6.22;;;3.83;;
59571;SDS011;70118;45.638;11.714;2023-11-21T06:44:52;6.13;;;3.80;;
59571;SDS011;70118;45.638;11.714;2023-11-21T06:47:22;6.50;;;3.83;;
59571;SDS011;70118;45.638;11.714;2023-11-21T06:49:55;6.77;;;3.20;;
59571;SDS011;70118;45.638;11.714;2023-11-21T06:52:25;6.85;;;3.45;;
59571;SDS011;70118;45.638;11.714;2023-11-21T06:55:13;6.45;;;3.33;;
59571;SDS011;70118;45.638;11.714;2023-11-21T06:57:41;6.28;;;3.42;;
59571;SDS011;70118;45.638;11.714;2023-11-21T07:00:08;7.50;;;4.50;;
59571;SDS011;70118;45.638;11.714;2023-11-21T07:02:35;6.57;;;3.40;;
59571;SDS011;70118;45.638;11.714;2023-11-21T07:05:04;7.47;;;4.00;;
59571;SDS011;70118;45.638;11.714;2023-11-21T07:07:30;6.65;;;3.92;;
59571;SDS011;70118;45.638;11.714;2023-11-21T07:09:56;6.53;;;3.67;;
59571;SDS011;70118;45.638;11.714;2023-11-21T07:12:22;7.20;;;3.53;;
59571;SDS011;70118;45.638;11.714;2023-11-21T07:14:50;6.97;;;3.55;;
59571;SDS011;70118;45.638;11.714;2023-11-21T07:17:16;6.20;;;3.65;;
59571;SDS011;70118;45.638;11.714;2023-11-21T07:19:42;7.05;;;3.60;;
59571;SDS011;70118;45.638;11.714;2023-11-21T07:22:08;6.77;;;3.67;;
59571;SDS011;70118;45.638;11.714;2023-11-21T07:24:34;7.32;;;3.65;;
59571;SDS011;70118;45.638;11.714;2023-11-21T07:27:02;6.80;;;3.60;;
59571;SDS011;70118;45.638;11.714;2023-11-21T07:29:29;7.60;;;3.50;;
59571;SDS011;70118;45.638;11.714;2023-11-21T07:31:56;6.87;;;3.50;;
59571;SDS011;70118;45.638;11.714;2023-11-21T07:34:22;5.53;;;3.05;;
59571;SDS011;70118;45.638;11.714;2023-11-21T07:36:48;5.82;;;3.28;;
59571;SDS011;70118;45.638;11.714;2023-11-21T07:39:14;5.77;;;3.17;;
59571;SDS011;70118;45.638;11.714;2023-11-21T07:41:41;6.13;;;3.17;;
59571;SDS011;70118;45.638;11.714;2023-11-21T07:44:15;6.05;;;3.35;;
59571;SDS011;70118;45.638;11.714;2023-11-21T07:46:42;5.88;;;3.20;;
59571;SDS011;70118;45.638;11.714;2023-11-21T07:49:12;6.53;;;3.40;;
59571;SDS011;70118;45.638;11.714;2023-11-21T07:51:51;5.83;;;3.27;;
59571;SDS011;70118;45.638;11.714;2023-11-21T07:54:17;6.65;;;3.40;;
59571;SDS011;70118;45.638;11.714;2023-11-21T07:56:43;6.78;;;3.42;;
59571;SDS011;70118;45.638;11.714;2023-11-21T07:59:10;6.20;;;3.33;;
59571;SDS011;70118;45.638;11.714;2023-11-21T08:01:37;7.00;;;3.80;;
59571;SDS011;70118;45.638;11.714;2023-11-21T08:04:05;6.17;;;3.50;;
59571;SDS011;70118;45.638;11.714;2023-11-21T08:06:31;6.60;;;3.58;;
59571;SDS011;70118;45.638;11.714;2023-11-21T08:08:58;6.53;;;3.58;;
59571;SDS011;70118;45.638;11.714;2023-11-21T08:11:24;7.40;;;3.70;;
59571;SDS011;70118;45.638;11.714;2023-11-21T08:13:51;7.28;;;3.30;;
59571;SDS011;70118;45.638;11.714;2023-11-21T08:16:18;7.80;;;4.10;;
59571;SDS011;70118;45.638;11.714;2023-11-21T08:18:44;6.95;;;3.50;;
59571;SDS011;70118;45.638;11.714;2023-11-21T08:21:12;6.53;;;3.38;;
59571;SDS011;70118;45.638;11.714;2023-11-21T08:23:38;6.75;;;3.30;;
59571;SDS011;70118;45.638;11.714;2023-11-21T08:26:04;6.70;;;3.17;;
59571;SDS011;70118;45.638;11.714;2023-11-21T08:28:30;6.45;;;3.47;;
59571;SDS011;70118;45.638;11.714;2023-11-21T08:30:56;6.53;;;3.40;;
59571;SDS011;70118;45.638;11.714;2023-11-21T08:33:22;7.70;;;3.53;;
59571;SDS011;70118;45.638;11.714;2023-11-21T08:35:48;6.05;;;2.80;;
59571;SDS011;70118;45.638;11.714;2023-11-21T08:38:14;5.95;;;3.17;;
59571;SDS011;70118;45.638;11.714;2023-11-21T08:40:40;5.93;;;3.30;;
59571;SDS011;70118;45.638;11.714;2023-11-21T08:43:06;5.80;;;3.20;;
59571;SDS011;70118;45.638;11.714;2023-11-21T08:45:33;5.85;;;3.03;;
59571;SDS011;70118;45.638;11.714;2023-11-21T08:48:02;6.43;;;3.50;;
59571;SDS011;70118;45.638;11.714;2023-11-21T08:50:28;6.18;;;2.80;;
59571;SDS011;70118;45.638;11.714;2023-11-21T08:52:54;6.43;;;3.03;;
59571;SDS011;70118;45.638;11.714;2023-11-21T08:55:20;7.32;;;3.45;;
59571;SDS011;70118;45.638;11.714;2023-11-21T08:57:47;6.43;;;3.28;;
59571;SDS011;70118;45.638;11.714;2023-11-21T09:00:13;7.15;;;2.92;;
59571;SDS011;70118;45.638;11.714;2023-11-21T09:02:42;6.50;;;3.35;;
59571;SDS011;70118;45.638;11.714;2023-11-21T09:05:09;11.97;;;7.57;;
59571;SDS011;70118;45.638;11.714;2023-11-21T09:07:36;8.52;;;4.95;;
59571;SDS011;70118;45.638;11.714;2023-11-21T09:10:03;7.25;;;3.95;;
59571;SDS011;70118;45.638;11.714;2023-11-21T09:12:33;6.63;;;3.42;;
59571;SDS011;70118;45.638;11.714;2023-11-21T09:15:01;6.07;;;3.28;;
59571;SDS011;70118;45.638;11.714;2023-11-21T09:17:31;6.10;;;2.97;;
59571;SDS011;70118;45.638;11.714;2023-11-21T09:19:57;6.78;;;3.15;;
59571;SDS011;70118;45.638;11.714;2023-11-21T09:22:23;5.85;;;3.03;;
59571;SDS011;70118;45.638;11.714;2023-11-21T09:24:50;5.93;;;2.65;;
59571;SDS011;70118;45.638;11.714;2023-11-21T09:27:17;5.80;;;2.90;;
59571;SDS011;70118;45.638;11.714;2023-11-21T09:29:43;5.45;;;2.92;;
59571;SDS011;70118;45.638;11.714;2023-11-21T09:32:09;6.53;;;3.40;;
59571;SDS011;70118;45.638;11.714;2023-11-21T09:34:39;5.30;;;2.60;;
59571;SDS011;70118;45.638;11.714;2023-11-21T09:37:05;6.13;;;3.00;;
59571;SDS011;70118;45.638;11.714;2023-11-21T09:39:31;5.65;;;2.70;;
59571;SDS011;70118;45.638;11.714;2023-11-21T09:42:10;4.95;;;2.80;;
59571;SDS011;70118;45.638;11.714;2023-11-21T09:44:54;6.70;;;2.95;;
59571;SDS011;70118;45.638;11.714;2023-11-21T09:47:39;5.70;;;2.35;;
59571;SDS011;70118;45.638;11.714;2023-11-21T09:50:05;5.77;;;2.93;;
59571;SDS011;70118;45.638;11.714;2023-11-21T09:52:49;5.30;;;2.80;;
59571;SDS011;70118;45.638;11.714;2023-11-21T09:55:18;6.15;;;2.78;;
59571;SDS011;70118;45.638;11.714;2023-11-21T09:57:47;5.40;;;2.83;;
59571;SDS011;70118;45.638;11.714;2023-11-21T10:00:16;6.37;;;3.13;;
59571;SDS011;70118;45.638;11.714;2023-11-21T10:02:43;5.80;;;2.75;;
59571;SDS011;70118;45.638;11.714;2023-11-21T10:05:09;6.63;;;2.88;;
59571;SDS011;70118;45.638;11.714;2023-11-21T10:07:37;6.65;;;3.05;;
59571;SDS011;70118;45.638;11.714;2023-11-21T10:10:05;5.90;;;3.00;;
59571;SDS011;70118;45.638;11.714;2023-11-21T10:12:33;6.80;;;3.30;;
59571;SDS011;70118;45.638;11.714;2023-11-21T10:15:00;5.85;;;3.10;;
59571;SDS011;70118;45.638;11.714;2023-11-21T10:17:31;6.95;;;3.35;;
59571;SDS011;70118;45.638;11.714;2023-11-21T10:20:06;5.60;;;2.63;;
59571;SDS011;70118;45.638;11.714;2023-11-21T10:22:42;5.32;;;2.78;;
59571;SDS011;70118;45.638;11.714;2023-11-21T10:25:11;5.03;;;2.43;;
59571;SDS011;70118;45.638;11.714;2023-11-21T10:27:42;6.85;;;3.10;;
59571;SDS011;70118;45.638;11.714;2023-11-21T10:30:08;6.07;;;3.10;;
59571;SDS011;70118;45.638;11.714;2023-11-21T10:32:40;6.70;;;3.38;;
59571;SDS011;70118;45.638;11.714;2023-11-21T10:35:07;5.13;;;2.97;;
59571;SDS011;70118;45.638;11.714;2023-11-21T10:37:38;5.97;;;2.70;;
59571;SDS011;70118;45.638;11.714;2023-11-21T10:40:08;5.85;;;2.80;;
59571;SDS011;70118;45.638;11.714;2023-11-21T10:42:39;6.05;;;2.78;;
59571;SDS011;70118;45.638;11.714;2023-11-21T10:45:06;6.10;;;2.95;;
59571;SDS011;70118;45.638;11.714;2023-11-21T10:47:38;6.10;;;3.05;;
59571;SDS011;70118;45.638;11.714;2023-11-21T10:50:05;5.93;;;2.70;;
59571;SDS011;70118;45.638;11.714;2023-11-21T10:52:30;6.00;;;2.75;;
59571;SDS011;70118;45.638;11.714;2023-11-21T10:54:56;5.05;;;2.80;;
59571;SDS011;70118;45.638;11.714;2023-11-21T10:57:24;5.80;;;3.22;;
59571;SDS011;70118;45.638;11.714;2023-11-21T10:59:51;5.70;;;3.00;;
59571;SDS011;70118;45.638;11.714;2023-11-21T11:02:24;6.63;;;3.67;;
59571;SDS011;70118;45.638;11.714;2023-11-21T11:04:53;6.60;;;3.60;;
59571;SDS011;70118;45.638;11.714;2023-11-21T11:07:26;6.05;;;3.20;;
59571;SDS011;70118;45.638;11.714;2023-11-21T11:09:55;9.27;;;5.05;;
59571;SDS011;70118;45.638;11.714;2023-11-21T11:12:23;7.60;;;4.57;;
59571;SDS011;70118;45.638;11.714;2023-11-21T11:14:49;7.07;;;4.05;;
59571;SDS011;70118;45.638;11.714;2023-11-21T11:17:18;7.28;;;4.30;;
59571;SDS011;70118;45.638;11.714;2023-11-21T11:19:47;8.43;;;5.32;;
59571;SDS011;70118;45.638;11.714;2023-11-21T11:25:07;8.23;;;4.63;;
59571;SDS011;70118;45.638;11.714;2023-11-21T11:27:42;7.30;;;4.70;;
59571;SDS011;70118;45.638;11.714;2023-11-21T11:33:21;7.47;;;4.93;;
59571;SDS011;70118;45.638;11.714;2023-11-21T11:38:30;9.37;;;4.93;;
59571;SDS011;70118;45.638;11.714;2023-11-21T11:41:00;7.82;;;5.05;;
59571;SDS011;70118;45.638;11.714;2023-11-21T11:43:29;9.10;;;5.18;;
59571;SDS011;70118;45.638;11.714;2023-11-21T11:45:56;8.70;;;4.63;;
59571;SDS011;70118;45.638;11.714;2023-11-21T11:48:25;8.75;;;5.15;;
59571;SDS011;70118;45.638;11.714;2023-11-21T11:51:02;6.97;;;4.50;;
59571;SDS011;70118;45.638;11.714;2023-11-21T11:53:37;7.88;;;4.43;;
59571;SDS011;70118;45.638;11.714;2023-11-21T11:59:01;7.72;;;4.93;;
59571;SDS011;70118;45.638;11.714;2023-11-21T12:01:31;8.40;;;5.10;;
59571;SDS011;70118;45.638;11.714;2023-11-21T12:06:45;8.63;;;4.70;;
59571;SDS011;70118;45.638;11.714;2023-11-21T12:09:20;6.65;;;4.32;;
59571;SDS011;70118;45.638;11.714;2023-11-21T12:11:51;7.18;;;4.32;;
59571;SDS011;70118;45.638;11.714;2023-11-21T12:14:17;7.15;;;4.43;;
59571;SDS011;70118;45.638;11.714;2023-11-21T12:16:43;6.93;;;4.30;;
59571;SDS011;70118;45.638;11.714;2023-11-21T12:19:12;6.97;;;4.03;;
59571;SDS011;70118;45.638;11.714;2023-11-21T12:21:38;6.63;;;4.35;;
59571;SDS011;70118;45.638;11.714;2023-11-21T12:24:09;7.38;;;4.40;;
59571;SDS011;70118;45.638;11.714;2023-11-21T12:26:35;8.33;;;4.37;;
59571;SDS011;70118;45.638;11.714;2023-11-21T12:29:01;6.82;;;4.20;;
59571;SDS011;70118;45.638;11.714;2023-11-21T12:31:29;6.75;;;4.28;;
59571;SDS011;70118;45.638;11.714;2023-11-21T12:33:56;7.85;;;4.75;;
59571;SDS011;70118;45.638;11.714;2023-11-21T12:36:22;7.43;;;4.30;;
59571;SDS011;70118;45.638;11.714;2023-11-21T12:38:50;7.87;;;4.83;;
59571;SDS011;70118;45.638;11.714;2023-11-21T12:41:16;6.75;;;4.35;;
59571;SDS011;70118;45.638;11.714;2023-11-21T12:43:42;7.55;;;4.57;;
59571;SDS011;70118;45.638;11.714;2023-11-21T12:46:10;8.88;;;4.93;;
59571;SDS011;70118;45.638;11.714;2023-11-21T12:48:39;7.63;;;4.77;;
59571;SDS011;70118;45.638;11.714;2023-11-21T12:51:07;8.23;;;4.65;;
59571;SDS011;70118;45.638;11.714;2023-11-21T12:53:34;7.82;;;4.57;;
59571;SDS011;70118;45.638;11.714;2023-11-21T12:56:21;7.43;;;4.10;;
59571;SDS011;70118;45.638;11.714;2023-11-21T12:58:53;6.78;;;4.13;;
59571;SDS011;70118;45.638;11.714;2023-11-21T13:01:24;7.97;;;4.60;;
59571;SDS011;70118;45.638;11.714;2023-11-21T13:03:53;7.40;;;4.15;;
59571;SDS011;70118;45.638;11.714;2023-11-21T13:06:19;6.75;;;3.90;;
59571;SDS011;70118;45.638;11.714;2023-11-21T13:08:49;6.70;;;3.88;;
59571;SDS011;70118;45.638;11.714;2023-11-21T13:11:19;8.03;;;4.33;;
59571;SDS011;70118;45.638;11.714;2023-11-21T13:13:45;7.65;;;4.47;;
59571;SDS011;70118;45.638;11.714;2023-11-21T13:16:11;6.90;;;4.15;;
59571;SDS011;70118;45.638;11.714;2023-11-21T13:18:39;7.15;;;4.63;;
59571;SDS011;70118;45.638;11.714;2023-11-21T13:21:07;8.43;;;4.90;;
59571;SDS011;70118;45.638;11.714;2023-11-21T13:23:39;9.10;;;5.35;;
59571;SDS011;70118;45.638;11.714;2023-11-21T13:26:06;8.57;;;4.97;;
59571;SDS011;70118;45.638;11.714;2023-11-21T13:28:33;8.60;;;5.25;;
59571;SDS011;70118;45.638;11.714;2023-11-21T13:31:00;8.35;;;4.95;;
59571;SDS011;70118;45.638;11.714;2023-11-21T13:33:46;8.03;;;5.17;;
59571;SDS011;70118;45.638;11.714;2023-11-21T13:36:21;7.97;;;5.00;;
59571;SDS011;70118;45.638;11.714;2023-11-21T13:38:58;8.90;;;5.30;;
59571;SDS011;70118;45.638;11.714;2023-11-21T13:41:29;8.07;;;5.05;;
59571;SDS011;70118;45.638;11.714;2023-11-21T13:43:58;8.98;;;5.30;;
59571;SDS011;70118;45.638;11.714;2023-11-21T13:46:39;9.67;;;5.57;;
59571;SDS011;70118;45.638;11.714;2023-11-21T13:49:05;8.50;;;5.30;;
59571;SDS011;70118;45.638;11.714;2023-11-21T13:51:35;7.57;;;5.03;;
59571;SDS011;70118;45.638;11.714;2023-11-21T13:54:09;8.50;;;5.55;;
59571;SDS011;70118;45.638;11.714;2023-11-21T13:56:36;8.85;;;5.43;;
59571;SDS011;70118;45.638;11.714;2023-11-21T13:59:02;9.17;;;5.53;;
59571;SDS011;70118;45.638;11.714;2023-11-21T14:01:39;7.72;;;5.05;;
59571;SDS011;70118;45.638;11.714;2023-11-21T14:04:22;8.25;;;5.25;;
59571;SDS011;70118;45.638;11.714;2023-11-21T14:06:57;9.00;;;5.50;;
59571;SDS011;70118;45.638;11.714;2023-11-21T14:09:25;7.78;;;4.80;;
59571;SDS011;70118;45.638;11.714;2023-11-21T14:11:58;7.77;;;4.70;;
59571;SDS011;70118;45.638;11.714;2023-11-21T14:14:25;7.13;;;4.65;;
59571;SDS011;70118;45.638;11.714;2023-11-21T14:16:55;8.32;;;4.70;;
59571;SDS011;70118;45.638;11.714;2023-11-21T14:19:22;9.25;;;5.20;;
59571;SDS011;70118;45.638;11.714;2023-11-21T14:21:52;8.30;;;5.13;;
59571;SDS011;70118;45.638;11.714;2023-11-21T14:24:18;6.97;;;4.77;;
59571;SDS011;70118;45.638;11.714;2023-11-21T14:26:44;7.55;;;4.63;;
59571;SDS011;70118;45.638;11.714;2023-11-21T14:29:12;7.32;;;4.60;;
59571;SDS011;70118;45.638;11.714;2023-11-21T14:31:41;6.63;;;4.40;;
59571;SDS011;70118;45.638;11.714;2023-11-21T14:34:08;7.90;;;4.80;;
59571;SDS011;70118;45.638;11.714;2023-11-21T14:36:35;8.13;;;4.72;;
59571;SDS011;70118;45.638;11.714;2023-11-21T14:39:05;6.63;;;4.50;;
59571;SDS011;70118;45.638;11.714;2023-11-21T14:41:51;7.00;;;4.32;;
59571;SDS011;70118;45.638;11.714;2023-11-21T14:44:19;7.70;;;4.50;;
59571;SDS011;70118;45.638;11.714;2023-11-21T14:46:48;7.67;;;4.20;;
59571;SDS011;70118;45.638;11.714;2023-11-21T14:49:16;6.38;;;3.90;;
59571;SDS011;70118;45.638;11.714;2023-11-21T14:51:46;6.55;;;3.95;;
59571;SDS011;70118;45.638;11.714;2023-11-21T14:54:33;6.43;;;3.92;;